Kezdőlap
METAR-TAF:

METAR-TAF

Repülőterek :

Saglek Bay, Újfundland és Labrador, Kanada

földrajzi szélesség: 58-20N, földrajzi hosszúság: 062-35W, magasság: 483 m

Jelenlegi meteorológiai megfigyelések

A jelentés 30 perccel ezelõtt készült, 21:33 UTC
Észak-északkeleti szél 13 kt
Hőmérséklet -19°C
Páratartalom 84%
Légköri nyomás 987 hPa
Kevés felhő 1200 lábon
Szórványos felhőzet 1800 lábon
Szakadozott felhőzet 2700 lábon

METAR: CWZZ 222133Z AUTO 02013KT ////SM FEW012 SCT018 BKN027 M19/M21 A2916

Idő: 18:03 (22:03 UTC)


TAF: hiányzik

Meteorológiai megfigyelések és előrejelzések több, mint 4000 repülőtéren (METAR és TAF jelentéseket).

A térképen piros és sárga pontok jelzik az elérhető meteorológiai állomásokat.

Mozgassa az egeret a pont fölött, hogy megjelenjen az állomás neve.

Azután kattintson az időjárási megfigyelések és előrejelzések megtekintéséhez.

A térkép megváltoztatása: kattintson a fekete keresztel jelölt zöld gombra ráközelítéshez, a vonallal jelölt zöld gombra távolításhoz, vagy a zöld nyilakra a szomszédos térképek eléréséhez.


METAR-TAF: